»·PEaware :: N3533U KVNY-KPMD

N3533U :: KVNY-KPMD

FLIGHT INFORMATION

Flight Status: Arrived
Operator: Privately registered:
United States
More flights under this callsign
Pilot: Adam W. (37400)
Aircraft: CESSNA 172 SKYHAWK
(C172)
More flights by this aircraft type
Origin: KVNY Van Nuys
United States
Destination: KPMD Palmdale AF Plant 42
United States
More flights between these airports :: More routes between these airports
Route: VFR
File this flight plan on PilotEdge
Remarks: / / RW PPL / 1ST PE FLIGHT
Altitude:
(Current/Filed)
7,500ft
Speed:
(Current/Filed)
115kts
Departed: 01-Dec-21 12:18 PM
Arrived: 01-Dec-21 12:45 PM
Distance/Time
Traveled:
32nm/0:27
Distance/Time
To Go:
Arrived

Flight Plot

Page will automatically refresh every two minutes.

Flight plan parsing failed; only flown route is shown


Map Options




Map Legend


Flown Route
Filed Route
Departure Airport
Arrival Airport
Navaid (VOR, NDB)
Fix

Horizontal Profiles

Position Reports

Time Latitude Longitude Heading Altitude Ground
Speed
01-Dec-21 11:36 34.215480 -118.498706 0 797ft 0kts
01-Dec-21 11:37 34.215480 -118.498706 0 797ft 0kts
01-Dec-21 11:38 34.215480 -118.498706 0 797ft 0kts
01-Dec-21 11:39 34.215480 -118.498706 0 797ft 0kts
01-Dec-21 11:40 34.215480 -118.498706 0 797ft 0kts
01-Dec-21 11:42 34.215480 -118.498705 0 797ft 0kts
01-Dec-21 11:43 34.215480 -118.498705 0 797ft 0kts
01-Dec-21 11:44 34.215480 -118.498705 359 797ft 0kts
01-Dec-21 11:45 34.215480 -118.498705 359 797ft 0kts
01-Dec-21 11:46 34.215480 -118.498705 359 797ft 0kts
01-Dec-21 11:47 34.215480 -118.498705 359 797ft 0kts
01-Dec-21 11:52 34.215481 -118.498706 359 797ft 0kts
01-Dec-21 11:53 34.215480 -118.498705 0 797ft 0kts
01-Dec-21 11:54 34.215480 -118.498705 0 797ft 0kts
01-Dec-21 11:55 34.215480 -118.498706 359 797ft 0kts
01-Dec-21 11:56 34.215480 -118.498705 0 797ft 0kts
01-Dec-21 11:57 34.215480 -118.498705 359 797ft 0kts
01-Dec-21 11:58 34.215480 -118.498705 359 797ft 0kts
01-Dec-21 11:59 34.215480 -118.498705 359 797ft 0kts
01-Dec-21 12:00 34.215480 -118.498705 359 797ft 0kts
01-Dec-21 12:01 34.215480 -118.498705 359 797ft 0kts
01-Dec-21 12:02 34.215480 -118.498705 359 797ft 0kts
01-Dec-21 12:03 34.215480 -118.498705 359 797ft 0kts
01-Dec-21 12:03 34.215480 -118.498705 359 797ft 0kts
01-Dec-21 12:05 34.215480 -118.498705 359 797ft 0kts
01-Dec-21 12:06 34.215480 -118.498705 359 797ft 0kts
01-Dec-21 12:07 34.215598 -118.498638 26 797ft 0kts
01-Dec-21 12:08 34.216049 -118.498229 48 795ft 0kts
01-Dec-21 12:08 34.216080 -118.498193 43 795ft 0kts
01-Dec-21 12:09 34.216895 -118.496882 59 803ft 11kts
01-Dec-21 12:11 34.217284 -118.492282 354 800ft 5kts
01-Dec-21 12:12 34.217915 -118.492336 355 801ft 0kts
01-Dec-21 12:12 34.218599 -118.492306 33 803ft 0kts
01-Dec-21 12:13 34.218599 -118.492306 33 803ft 0kts
01-Dec-21 12:14 34.218599 -118.492306 33 803ft 0kts
01-Dec-21 12:16 34.218599 -118.492306 33 803ft 0kts
01-Dec-21 12:16 34.218733 -118.492074 65 803ft 10kts
01-Dec-21 12:17 34.206473 -118.490032 171 1005ft 85kts
01-Dec-21 12:18 34.190416 -118.503167 284 1773ft 89kts
01-Dec-21 12:19 34.211008 -118.511093 344 2561ft 83kts
01-Dec-21 12:20 34.232150 -118.524035 336 3196ft 96kts
01-Dec-21 12:21 34.261851 -118.534874 19 2932ft 117kts
01-Dec-21 12:22 34.294690 -118.523768 28 2347ft 104kts
01-Dec-21 12:23 34.313970 -118.506927 67 3003ft 83kts
01-Dec-21 12:24 34.323726 -118.487576 347 3644ft 91kts
01-Dec-21 12:25 34.345586 -118.497835 12 4096ft 85kts
01-Dec-21 12:26 34.365185 -118.484772 48 4759ft 79kts
01-Dec-21 12:27 34.379758 -118.464645 62 5271ft 80kts
01-Dec-21 12:28 34.394308 -118.440397 53 5655ft 90kts
01-Dec-21 12:29 34.413386 -118.416731 47 5720ft 103kts
01-Dec-21 12:30 34.430877 -118.389568 58 5632ft 102kts
01-Dec-21 12:31 34.447832 -118.362645 52 5811ft 101kts
01-Dec-21 12:32 34.468827 -118.336314 52 5784ft 115kts
01-Dec-21 12:33 34.484926 -118.306986 64 5168ft 95kts
01-Dec-21 12:34 34.504356 -118.287808 32 5094ft 96kts
01-Dec-21 12:35 34.528261 -118.276600 32 5584ft 93kts
01-Dec-21 12:36 34.550358 -118.258343 40 5607ft 102kts
01-Dec-21 12:37 34.572787 -118.234574 53 5336ft 106kts
01-Dec-21 12:38 34.596500 -118.214219 73 4185ft 112kts
01-Dec-21 12:39 34.600567 -118.182934 61 3400ft 83kts
01-Dec-21 12:40 34.612714 -118.154420 37 3254ft 105kts
01-Dec-21 12:41 34.629230 -118.133561 82 2886ft 79kts
01-Dec-21 12:42 34.609601 -118.122304 108 3014ft 74kts
01-Dec-21 12:43 34.613538 -118.096791 50 2693ft 69kts
01-Dec-21 12:44 34.621489 -118.084623 52 2538ft 27kts
01-Dec-21 12:45 34.623468 -118.085774 47 2531ft 7kts

Navigation Log

Ident Type
Flight plan parsing failed, navigation log unavailable